ダブリン の空港の天気 - METARとTAF

ダブリン空港 ( EIDW / DUB ) - アイルランド ダブリン
飛行場実況気象(Metar)
観測時間10/16 07:30 IST (10/16 06:30 UTC)
風向・風速不定 2m/s
視程10km以上
天気現象
少しの雲 雲底高度 610m
全天の4割程度の雲 雲底高度 5790m
全天の8割程度の雲 雲底高度 7620m
気温9℃
湿度87%
気圧1010hPa
METAREIDW 160630Z VRB03KT 9999 FEW020 SCT190 BKN250 09/07 Q1010 NOSIG
過去の天気等 Google飛行場航空写真 Wunderground天気予報

過去48時間のMETAR

飛行場予報(TAF)
発表時間: 10/16 06:00 IST (10/16 05:00 UTC)
予報対象時間: 16日7時 IST ~ 17日7時 IST
風向・風速南南西 4m/s
視程10km以上
少しの雲 雲底高度 520m
全天の4割程度の雲 雲底高度 760m
16日7時 IST ~ 16日8時 IST に一時的に
風向・風速南西 3m/s
16日9時 IST ~ 16日11時 IST に徐々に
風向・風速南南西 6m/s
16日12時 IST ~ 16日15時 IST に 確率 30% で一時的に
風向・風速南西 7m/s 瞬間風速 13m/s
16日13時 IST ~ 16日17時 IST に一時的に
視程7000m
天気現象弱い雨霧雨
全天の8割程度の雲 雲底高度 370m
16日15時 IST ~ 16日17時 IST に 確率 30% で一時的に
視程5000m
天気現象弱い雨霧雨
全天の8割程度の雲 雲底高度 240m
16日17時 IST ~ 16日19時 IST に徐々に
風向・風速南西 4m/s
17日3時 IST ~ 17日6時 IST に徐々に
風向・風速西 4m/s
17日5時 IST ~ 17日7時 IST に 確率 30% で一時的に
視程4000m
天気現象もや
TAF EIDW 160500Z 1606/1706 20007KT 9999 FEW017 SCT025
TEMPO 1606/1607 23005KT
BECMG 1608/1610 21012KT
PROB30 TEMPO 1611/1614 22014G25KT
TEMPO 1612/1616 7000 -RADZ BKN012
PROB30 TEMPO 1614/1616 5000 -RADZ BKN008
BECMG 1616/1618 23007KT
BECMG 1702/1705 26008KT
PROB30 TEMPO 1704/1706 4000 BR